Waseca, MN

1:14 AM CST on February 11, 2016 (GMT -0600)
Waseca Municipal

Weather History for KACQ - September, 2012

Change the Weather History Date:

Friday, September 7, 2012

  Actual Average Record
Temperature  
Mean Temperature 62 °F -  
Max Temperature 73 °F 76 °F 96 °F (1931)
Min Temperature 50 °F 54 °F 35 °F (1956)
Degree Days  
Heating Degree Days 3    
Growing Degree Days 12 (Base 50)    
Moisture  
Dew Point 46 °F    
Average Humidity 55    
Maximum Humidity 72    
Minimum Humidity 28    
Precipitation  
Precipitation 0.00 in - - ()
Sea Level Pressure  
Sea Level Pressure 29.98 in    
Wind  
Wind Speed 10 mph (North)    
Max Wind Speed 18 mph    
Max Gust Speed 25 mph    
Visibility 10 miles    
Events      
Averages and records for this station are not official NWS values.
T = Trace of Precipitation, MM = Missing Value Source: NWS Daily Summary

Daily Weather History Graph

Daily Weather History Graph

Search for Another Location

Airport or City:

Trip Planner

Search our weather history database for the weather conditions in past years. The results will help you decide how hot, cold, wet, or windy it might be!

Date:

Astronomy

Sep. 07, 2012 Rise Set
Actual Time 6:44 AM CDT 7:38 PM CDT
Civil Twilight 6:15 AM CDT 8:07 PM CDT
Nautical Twilight 5:40 AM CDT 8:42 PM CDT
Astronomical Twilight 5:03 AM CDT 9:19 PM CDT
Moon 11:19 PM CDT (9/7) 1:52 PM CDT (9/7)
Length of Visible Light 13h 52m
Length of Day
12h 53m
Waning Gibbous, 58% of the Moon is Illuminated
Sep 7
Waning Gibbous
Sep 8
Last Quarter
Sep 15
New
Sep 22
First Quarter
Sep 29
Full

Hourly Weather History & Observations

Time (CDT) Temp. Dew Point Humidity Pressure Visibility Wind Dir Wind Speed Gust Speed Precip Events Conditions
12:12 AM 64.4 °F 53.6 °F 68% 29.88 in 10.0 mi East 6.9 mph - N/A   Mostly Cloudy
12:33 AM 64.4 °F 53.6 °F 68% 29.87 in 10.0 mi East 5.8 mph - N/A   Mostly Cloudy
12:53 AM 64.4 °F 53.6 °F 68% 29.86 in 10.0 mi East 4.6 mph - N/A   Overcast
1:12 AM 64.4 °F 51.8 °F 64% 29.86 in 10.0 mi NE 3.5 mph - N/A   Overcast
1:33 AM 64.4 °F 51.8 °F 64% 29.86 in 10.0 mi NNE 9.2 mph - N/A   Overcast
1:53 AM 64.4 °F 51.8 °F 64% 29.86 in 10.0 mi NE 6.9 mph - N/A   Scattered Clouds
2:12 AM 62.6 °F 51.8 °F 68% 29.88 in 10.0 mi Calm Calm - N/A   Clear
2:33 AM 62.6 °F 51.8 °F 68% 29.88 in 10.0 mi NE 3.5 mph - N/A   Mostly Cloudy
2:53 AM 62.6 °F 51.8 °F 68% 29.88 in 10.0 mi NNE 8.1 mph - N/A   Mostly Cloudy
3:12 AM 62.6 °F 53.6 °F 72% 29.88 in 10.0 mi North 11.5 mph - N/A   Scattered Clouds
3:33 AM 62.6 °F 53.6 °F 72% 29.86 in 10.0 mi NNE 13.8 mph - N/A   Clear
3:53 AM 62.6 °F 51.8 °F 68% 29.88 in 10.0 mi NNE 15.0 mph 21.9 mph N/A   Clear
4:13 AM 62.6 °F 51.8 °F 68% 29.88 in 10.0 mi NNE 16.1 mph 21.9 mph N/A   Clear
4:32 AM 62.6 °F 51.8 °F 68% 29.89 in 10.0 mi NNE 18.4 mph 23.0 mph N/A   Scattered Clouds
4:53 AM 62.6 °F 51.8 °F 68% 29.91 in 10.0 mi NNE 15.0 mph 23.0 mph N/A   Clear
5:13 AM 62.6 °F 51.8 °F 68% 29.91 in 10.0 mi NNE 16.1 mph 20.7 mph N/A   Clear
5:33 AM 62.6 °F 51.8 °F 68% 29.92 in 10.0 mi NNE 18.4 mph 21.9 mph N/A   Clear
5:52 AM 62.6 °F 51.8 °F 68% 29.93 in 10.0 mi NNE 12.7 mph 19.6 mph N/A   Scattered Clouds
6:13 AM 62.6 °F 53.6 °F 72% 29.93 in 10.0 mi NNE 12.7 mph - N/A   Scattered Clouds
6:33 AM 62.6 °F 53.6 °F 72% 29.95 in 10.0 mi NNE 9.2 mph - N/A   Scattered Clouds
6:53 AM 62.6 °F 53.6 °F 72% 29.95 in 10.0 mi North 9.2 mph - N/A   Scattered Clouds
7:13 AM 62.6 °F 53.6 °F 72% 29.97 in 10.0 mi North 10.4 mph - N/A   Scattered Clouds
7:33 AM 62.6 °F 53.6 °F 72% 29.98 in 10.0 mi North 8.1 mph - N/A   Scattered Clouds
7:53 AM 62.6 °F 53.6 °F 72% 29.98 in 10.0 mi North 9.2 mph - N/A   Light Drizzle
8:13 AM 62.6 °F 53.6 °F 72% 30.00 in 10.0 mi North 8.1 mph - N/A   Mostly Cloudy
8:33 AM 62.6 °F 53.6 °F 72% 30.00 in 10.0 mi North 9.2 mph - N/A   Overcast
8:53 AM 62.6 °F 53.6 °F 72% 30.00 in 10.0 mi North 8.1 mph - N/A   Overcast
9:12 AM 62.6 °F 51.8 °F 68% 29.99 in 10.0 mi North 13.8 mph - N/A   Mostly Cloudy
9:33 AM 62.6 °F 51.8 °F 68% 30.00 in 10.0 mi North 13.8 mph - N/A   Scattered Clouds
9:53 AM 64.4 °F 51.8 °F 64% 30.00 in 10.0 mi NNE 9.2 mph - N/A   Mostly Cloudy
10:13 AM 64.4 °F 51.8 °F 64% 30.00 in 10.0 mi NNE 10.4 mph 16.1 mph N/A   Overcast
10:33 AM 64.4 °F 50.0 °F 59% 30.00 in 10.0 mi North 10.4 mph - N/A   Scattered Clouds
10:53 AM 68.0 °F 50.0 °F 52% 30.00 in 10.0 mi North 9.2 mph 19.6 mph N/A   Scattered Clouds
11:13 AM 68.0 °F 48.2 °F 49% 30.01 in 10.0 mi North 9.2 mph - N/A   Scattered Clouds
11:33 AM 68.0 °F 46.4 °F 46% 30.01 in 10.0 mi NNW 12.7 mph 17.3 mph N/A   Scattered Clouds
11:53 AM 68.0 °F 44.6 °F 43% 30.00 in 10.0 mi North 13.8 mph 18.4 mph N/A   Scattered Clouds
12:13 PM 68.0 °F 44.6 °F 43% 30.01 in 10.0 mi NNW 13.8 mph - N/A   Scattered Clouds
12:33 PM 68.0 °F 44.6 °F 43% 30.00 in 10.0 mi North 12.7 mph - N/A   Mostly Cloudy
12:53 PM 69.8 °F 42.8 °F 38% 30.00 in 10.0 mi North 10.4 mph 18.4 mph N/A   Mostly Cloudy
1:13 PM 71.6 °F 41.0 °F 33% 30.00 in 10.0 mi NNW 11.5 mph 18.4 mph N/A   Mostly Cloudy
1:33 PM 73.4 °F 41.0 °F 31% 30.00 in 10.0 mi NNW 12.7 mph 23.0 mph N/A   Mostly Cloudy
1:53 PM 73.4 °F 41.0 °F 31% 29.99 in 10.0 mi NNW 10.4 mph 16.1 mph N/A   Mostly Cloudy
2:13 PM 69.8 °F 41.0 °F 35% 30.00 in 10.0 mi NW 10.4 mph 18.4 mph N/A   Mostly Cloudy
2:38 PM 69.8 °F 39.2 °F 33% 29.99 in 10.0 mi North 17.3 mph 21.9 mph N/A   Mostly Cloudy
2:58 PM 71.6 °F 41.0 °F 33% 30.00 in 10.0 mi NNW 17.3 mph 23.0 mph N/A   Mostly Cloudy
3:12 PM 69.8 °F 37.4 °F 31% 30.00 in 10.0 mi NW 15.0 mph 19.6 mph N/A   Overcast
3:33 PM 71.6 °F 39.2 °F 31% 30.00 in 10.0 mi NNW 15.0 mph 19.6 mph N/A   Overcast
3:53 PM 69.8 °F 35.6 °F 28% 30.01 in 10.0 mi NNW 15.0 mph 20.7 mph N/A   Overcast
4:13 PM 68.0 °F 37.4 °F 33% 30.01 in 10.0 mi NW 10.4 mph - N/A   Overcast
4:52 PM 68.0 °F 37.4 °F 33% 30.01 in 10.0 mi NNW 13.8 mph 18.4 mph N/A   Overcast
5:13 PM 69.8 °F 37.4 °F 31% 30.01 in 10.0 mi NW 12.7 mph 21.9 mph N/A   Overcast
5:33 PM 69.8 °F 39.2 °F 33% 30.02 in 10.0 mi NW 15.0 mph 21.9 mph N/A   Mostly Cloudy
5:53 PM 68.0 °F 37.4 °F 33% 30.01 in 10.0 mi NW 15.0 mph 23.0 mph N/A   Scattered Clouds
6:13 PM 68.0 °F 37.4 °F 33% 30.02 in 10.0 mi NNW 13.8 mph 20.7 mph N/A   Scattered Clouds
6:33 PM 66.2 °F 39.2 °F 37% 30.03 in 10.0 mi NNW 15.0 mph 25.3 mph N/A   Mostly Cloudy
6:53 PM 64.4 °F 39.2 °F 40% 30.03 in 10.0 mi NNW 11.5 mph 16.1 mph N/A   Mostly Cloudy
7:13 PM 64.4 °F 37.4 °F 37% 30.02 in 10.0 mi NNW 17.3 mph 24.2 mph N/A   Mostly Cloudy
7:33 PM 62.6 °F 39.2 °F 42% 30.03 in 10.0 mi NNW 17.3 mph 20.7 mph N/A   Mostly Cloudy
7:53 PM 60.8 °F 41.0 °F 48% 30.03 in 10.0 mi NW 8.1 mph - N/A   Scattered Clouds
8:13 PM 59.0 °F 41.0 °F 51% 30.04 in 10.0 mi NW 8.1 mph - N/A   Scattered Clouds
8:33 PM 59.0 °F 41.0 °F 51% 30.04 in 10.0 mi NNW 9.2 mph - N/A   Mostly Cloudy
8:53 PM 59.0 °F 41.0 °F 51% 30.05 in 10.0 mi NNW 6.9 mph - N/A   Overcast
9:13 PM 59.0 °F 42.8 °F 55% 30.05 in 10.0 mi NW 5.8 mph - N/A   Mostly Cloudy
9:32 PM 55.4 °F 42.8 °F 63% 30.05 in 10.0 mi NW 5.8 mph - N/A   Scattered Clouds
9:53 PM 53.6 °F 41.0 °F 62% 30.06 in 10.0 mi NW 4.6 mph - N/A   Clear
10:13 PM 53.6 °F 42.8 °F 67% 30.05 in 10.0 mi NW 3.5 mph - N/A   Clear
10:33 PM 51.8 °F 42.8 °F 71% 30.06 in 10.0 mi NW 4.6 mph - N/A   Clear
10:53 PM 53.6 °F 44.6 °F 72% 30.06 in 10.0 mi NW 6.9 mph - N/A   Clear
11:32 PM 51.8 °F 42.8 °F 71% 30.06 in 10.0 mi WNW 4.6 mph - N/A   Clear
11:53 PM 50.0 °F 41.0 °F 71% 30.06 in 10.0 mi NW 5.8 mph - N/A   Clear